CheckWX is a tool to help pilots better visualize weather data.  It is not intended as a substitute for an official pre-flight weather briefing.

20:06:42 UTC

KAGS METAR
Augusta Regional at Bush Field Airport
Augusta, Georgia, USA
Current

14 mins ago

KAGS 261953Z 31011G16KT 10SM FEW080 38/17 A3005 RMK AO2 SLP173 T03780172
Observed
May-26 @ 19:53 UTC
Wind
  • 310° at 11 KTS
  • Gusting to 16 KTS
Visibility
10 SM
Flight Rules
VFR
Cloud Levels
  • Few at 8,000' AGL
Temperature
38°C / 100°F
Dewpoint
17°C / 63°F
Humidity
29%
Altimeter
30.05" Hg
Pressure
1017.62 hPa
Previous

1 hour ago

KAGS 261853Z 33012G16KT 10SM SCT080 37/18 A3006 RMK AO2 SLP178 T03670178
Observed
May-26 @ 18:53 UTC
Wind
  • 330° at 12 KTS
  • Gusting to 16 KTS
Visibility
10 SM
Flight Rules
VFR
Cloud Levels
  • Scattered at 8,000' AGL
Temperature
37°C / 99°F
Dewpoint
18°C / 64°F
Humidity
33%
Altimeter
30.06" Hg
Pressure
1017.92 hPa
Previous

2 hours ago

KAGS 261753Z 35010KT 10SM CLR 37/18 A3008 RMK AO2 SLP183 T03720183 10372 20250 58018
Observed
May-26 @ 17:53 UTC
Wind
  • 350° at 10 KTS
Visibility
10 SM
Flight Rules
VFR
Cloud Levels
  • Clear skies
Temperature
37°C / 99°F
Dewpoint
18°C / 64°F
Humidity
33%
Altimeter
30.08" Hg
Pressure
1018.62 hPa